sensor_id;sensor_type;location;lat;lon;timestamp;pressure;altitude;pressure_sealevel;temperature;humidity
62864;BME280;48954;59.950;11.014;2023-03-21T00:32:52;99500.55;;;-3.65;77.05
62864;BME280;48954;59.950;11.014;2023-03-21T01:01:09;99517.85;;;-3.65;77.36
62864;BME280;48954;59.950;11.014;2023-03-21T01:04:09;99518.61;;;-3.66;77.33
62864;BME280;48954;59.950;11.014;2023-03-21T01:06:49;99513.34;;;-3.69;77.62
62864;BME280;48954;59.950;11.014;2023-03-21T01:09:32;99514.67;;;-3.69;77.19
62864;BME280;48954;59.950;11.014;2023-03-21T01:12:14;99510.86;;;-3.71;77.20
62864;BME280;48954;59.950;11.014;2023-03-21T01:15:55;99505.11;;;-3.73;77.34
62864;BME280;48954;59.950;11.014;2023-03-21T01:18:56;99498.98;;;-3.73;77.38
62864;BME280;48954;59.950;11.014;2023-03-21T01:22:04;99498.23;;;-3.74;77.36
62864;BME280;48954;59.950;11.014;2023-03-21T01:25:08;99491.73;;;-3.76;77.48
62864;BME280;48954;59.950;11.014;2023-03-21T01:27:54;99490.93;;;-3.76;77.18
62864;BME280;48954;59.950;11.014;2023-03-21T01:30:36;99493.48;;;-3.78;77.21
62864;BME280;48954;59.950;11.014;2023-03-21T01:33:36;99490.84;;;-3.79;77.40
62864;BME280;48954;59.950;11.014;2023-03-21T01:36:23;99493.52;;;-3.81;77.55
62864;BME280;48954;59.950;11.014;2023-03-21T01:39:28;99490.56;;;-3.84;77.54
62864;BME280;48954;59.950;11.014;2023-03-21T01:42:30;99489.12;;;-3.87;77.60
62864;BME280;48954;59.950;11.014;2023-03-21T01:48:52;99481.77;;;-3.92;77.42
62864;BME280;48954;59.950;11.014;2023-03-21T01:51:47;99478.66;;;-3.95;77.63
62864;BME280;48954;59.950;11.014;2023-03-21T01:54:33;99481.66;;;-3.97;77.62
62864;BME280;48954;59.950;11.014;2023-03-21T01:57:26;99479.45;;;-3.99;77.52
62864;BME280;48954;59.950;11.014;2023-03-21T02:00:30;99482.52;;;-4.00;77.73
62864;BME280;48954;59.950;11.014;2023-03-21T02:03:31;99479.58;;;-4.02;77.53
62864;BME280;48954;59.950;11.014;2023-03-21T02:06:37;99481.84;;;-4.04;77.52
62864;BME280;48954;59.950;11.014;2023-03-21T02:09:37;99487.05;;;-4.07;77.50
62864;BME280;48954;59.950;11.014;2023-03-21T02:12:39;99480.28;;;-4.11;77.51
62864;BME280;48954;59.950;11.014;2023-03-21T02:15:24;99478.29;;;-4.13;77.69
62864;BME280;48954;59.950;11.014;2023-03-21T02:18:40;99480.92;;;-4.16;77.86
62864;BME280;48954;59.950;11.014;2023-03-21T02:22:33;99476.10;;;-4.18;77.64
62864;BME280;48954;59.950;11.014;2023-03-21T02:37:10;99488.55;;;-4.33;78.03
62864;BME280;48954;59.950;11.014;2023-03-21T02:40:19;99492.64;;;-4.35;77.99
62864;BME280;48954;59.950;11.014;2023-03-21T02:43:16;99491.93;;;-4.38;77.97
62864;BME280;48954;59.950;11.014;2023-03-21T02:46:09;99498.97;;;-4.42;77.79
62864;BME280;48954;59.950;11.014;2023-03-21T02:49:12;99494.41;;;-4.45;77.80
62864;BME280;48954;59.950;11.014;2023-03-21T02:52:14;99490.64;;;-4.48;77.92
62864;BME280;48954;59.950;11.014;2023-03-21T02:55:00;99493.16;;;-4.49;77.87
62864;BME280;48954;59.950;11.014;2023-03-21T02:57:48;99488.22;;;-4.50;78.17
62864;BME280;48954;59.950;11.014;2023-03-21T03:00:31;99486.71;;;-4.51;78.03
62864;BME280;48954;59.950;11.014;2023-03-21T03:03:14;99484.41;;;-4.54;77.87
62864;BME280;48954;59.950;11.014;2023-03-21T03:05:58;99481.58;;;-4.56;77.84
62864;BME280;48954;59.950;11.014;2023-03-21T03:21:25;99493.83;;;-4.67;77.88
62864;BME280;48954;59.950;11.014;2023-03-21T03:24:33;99486.92;;;-4.70;78.09
62864;BME280;48954;59.950;11.014;2023-03-21T03:27:24;99490.63;;;-4.69;78.29
62864;BME280;48954;59.950;11.014;2023-03-21T03:30:08;99491.53;;;-4.68;78.26
62864;BME280;48954;59.950;11.014;2023-03-21T03:32:56;99492.16;;;-4.67;78.42
62864;BME280;48954;59.950;11.014;2023-03-21T03:35:38;99489.80;;;-4.65;78.47
62864;BME280;48954;59.950;11.014;2023-03-21T03:38:20;99484.98;;;-4.63;78.42
62864;BME280;48954;59.950;11.014;2023-03-21T03:41:13;99477.95;;;-4.62;78.35
62864;BME280;48954;59.950;11.014;2023-03-21T03:44:01;99479.67;;;-4.62;78.43
62864;BME280;48954;59.950;11.014;2023-03-21T03:46:47;99493.90;;;-4.60;78.43
62864;BME280;48954;59.950;11.014;2023-03-21T03:49:37;99487.68;;;-4.58;78.62
62864;BME280;48954;59.950;11.014;2023-03-21T03:52:24;99482.06;;;-4.55;78.62
62864;BME280;48954;59.950;11.014;2023-03-21T03:55:10;99482.80;;;-4.52;78.84
62864;BME280;48954;59.950;11.014;2023-03-21T03:57:52;99482.91;;;-4.50;78.84
62864;BME280;48954;59.950;11.014;2023-03-21T04:00:34;99485.98;;;-4.47;78.77
62864;BME280;48954;59.950;11.014;2023-03-21T04:03:16;99485.92;;;-4.45;78.81
62864;BME280;48954;59.950;11.014;2023-03-21T04:05:57;99479.60;;;-4.43;78.69
62864;BME280;48954;59.950;11.014;2023-03-21T04:08:32;99476.86;;;-4.42;78.86
62864;BME280;48954;59.950;11.014;2023-03-21T04:11:14;99478.29;;;-4.39;78.98
62864;BME280;48954;59.950;11.014;2023-03-21T04:13:55;99475.55;;;-4.35;79.02
62864;BME280;48954;59.950;11.014;2023-03-21T04:16:36;99472.23;;;-4.33;79.03
62864;BME280;48954;59.950;11.014;2023-03-21T04:19:17;99474.98;;;-4.31;78.77
62864;BME280;48954;59.950;11.014;2023-03-21T04:21:58;99471.48;;;-4.29;78.94
62864;BME280;48954;59.950;11.014;2023-03-21T04:24:39;99459.39;;;-4.28;78.96
62864;BME280;48954;59.950;11.014;2023-03-21T04:27:19;99457.83;;;-4.26;79.16
62864;BME280;48954;59.950;11.014;2023-03-21T04:30:02;99463.20;;;-4.24;78.92
62864;BME280;48954;59.950;11.014;2023-03-21T04:32:45;99463.05;;;-4.22;79.17
62864;BME280;48954;59.950;11.014;2023-03-21T04:35:17;99468.10;;;-4.19;79.08
62864;BME280;48954;59.950;11.014;2023-03-21T04:38:21;99468.09;;;-4.16;78.84
62864;BME280;48954;59.950;11.014;2023-03-21T04:41:02;99467.70;;;-4.13;79.20
62864;BME280;48954;59.950;11.014;2023-03-21T04:43:43;99463.19;;;-4.11;79.44
62864;BME280;48954;59.950;11.014;2023-03-21T04:46:26;99464.05;;;-4.08;79.24
62864;BME280;48954;59.950;11.014;2023-03-21T04:49:08;99461.86;;;-4.04;79.17
62864;BME280;48954;59.950;11.014;2023-03-21T04:51:48;99464.52;;;-4.00;79.31
62864;BME280;48954;59.950;11.014;2023-03-21T04:54:31;99461.41;;;-3.96;79.44
62864;BME280;48954;59.950;11.014;2023-03-21T04:57:12;99459.05;;;-3.91;79.61
62864;BME280;48954;59.950;11.014;2023-03-21T04:59:55;99456.23;;;-3.88;79.70
62864;BME280;48954;59.950;11.014;2023-03-21T05:02:37;99452.95;;;-3.84;79.54
62864;BME280;48954;59.950;11.014;2023-03-21T05:05:17;99453.59;;;-3.82;79.62
62864;BME280;48954;59.950;11.014;2023-03-21T05:08:33;99448.11;;;-3.80;79.40
62864;BME280;48954;59.950;11.014;2023-03-21T05:11:13;99450.84;;;-3.77;79.81
62864;BME280;48954;59.950;11.014;2023-03-21T05:13:54;99452.76;;;-3.75;79.67
62864;BME280;48954;59.950;11.014;2023-03-21T05:16:37;99451.46;;;-3.72;79.70
62864;BME280;48954;59.950;11.014;2023-03-21T05:19:27;99445.34;;;-3.70;79.47
62864;BME280;48954;59.950;11.014;2023-03-21T05:22:10;99448.98;;;-3.68;79.55
62864;BME280;48954;59.950;11.014;2023-03-21T05:24:52;99447.60;;;-3.68;79.12
62864;BME280;48954;59.950;11.014;2023-03-21T05:27:32;99445.44;;;-3.67;79.27
62864;BME280;48954;59.950;11.014;2023-03-21T05:30:16;99441.20;;;-3.66;79.36
62864;BME280;48954;59.950;11.014;2023-03-21T05:32:58;99442.16;;;-3.64;79.42
62864;BME280;48954;59.950;11.014;2023-03-21T05:35:38;99440.47;;;-3.62;79.49
62864;BME280;48954;59.950;11.014;2023-03-21T05:38:20;99435.20;;;-3.58;79.53
62864;BME280;48954;59.950;11.014;2023-03-21T05:41:05;99432.34;;;-3.55;79.61
62864;BME280;48954;59.950;11.014;2023-03-21T05:43:33;99440.88;;;-3.52;79.38
62864;BME280;48954;59.950;11.014;2023-03-21T05:46:01;99441.71;;;-3.50;79.21
62864;BME280;48954;59.950;11.014;2023-03-21T05:48:35;99442.24;;;-3.49;79.48
62864;BME280;48954;59.950;11.014;2023-03-21T05:51:06;99442.56;;;-3.46;79.20
62864;BME280;48954;59.950;11.014;2023-03-21T05:53:45;99444.70;;;-3.43;79.46
62864;BME280;48954;59.950;11.014;2023-03-21T05:59:37;99451.55;;;-3.31;79.62
62864;BME280;48954;59.950;11.014;2023-03-21T06:11:26;99443.77;;;-3.04;79.79
62864;BME280;48954;59.950;11.014;2023-03-21T16:28:15;98984.98;;;1.90;82.46
62864;BME280;48954;59.950;11.014;2023-03-21T16:30:43;98980.80;;;1.88;82.61
62864;BME280;48954;59.950;11.014;2023-03-21T16:33:12;98976.95;;;1.89;82.49
62864;BME280;48954;59.950;11.014;2023-03-21T16:35:38;98977.19;;;1.88;82.39
62864;BME280;48954;59.950;11.014;2023-03-21T16:38:04;98972.56;;;1.88;82.42
62864;BME280;48954;59.950;11.014;2023-03-21T16:40:37;98974.29;;;1.88;82.56
62864;BME280;48954;59.950;11.014;2023-03-21T16:45:51;98967.98;;;1.91;82.60
62864;BME280;48954;59.950;11.014;2023-03-21T18:04:59;98895.80;;;1.63;82.75
62864;BME280;48954;59.950;11.014;2023-03-21T18:08:15;98891.34;;;1.60;82.77
62864;BME280;48954;59.950;11.014;2023-03-21T18:10:44;98888.88;;;1.59;82.79
62864;BME280;48954;59.950;11.014;2023-03-21T18:13:11;98884.70;;;1.57;82.71
62864;BME280;48954;59.950;11.014;2023-03-21T18:15:38;98887.14;;;1.56;82.60
62864;BME280;48954;59.950;11.014;2023-03-21T18:18:13;98882.72;;;1.54;82.74
62864;BME280;48954;59.950;11.014;2023-03-21T18:21:09;98878.51;;;1.53;82.89
62864;BME280;48954;59.950;11.014;2023-03-21T18:24:10;98875.80;;;1.52;82.71
62864;BME280;48954;59.950;11.014;2023-03-21T18:26:51;98876.98;;;1.50;82.62
62864;BME280;48954;59.950;11.014;2023-03-21T18:29:19;98877.48;;;1.50;82.70
62864;BME280;48954;59.950;11.014;2023-03-21T18:31:46;98870.60;;;1.48;82.81
62864;BME280;48954;59.950;11.014;2023-03-21T18:34:12;98866.00;;;1.48;82.55
62864;BME280;48954;59.950;11.014;2023-03-21T18:36:38;98862.84;;;1.46;82.85
62864;BME280;48954;59.950;11.014;2023-03-21T18:39:05;98857.77;;;1.45;82.54
62864;BME280;48954;59.950;11.014;2023-03-21T18:41:46;98860.80;;;1.43;82.83
62864;BME280;48954;59.950;11.014;2023-03-21T18:44:13;98856.63;;;1.41;82.55
62864;BME280;48954;59.950;11.014;2023-03-21T18:46:54;98854.48;;;1.40;82.57
62864;BME280;48954;59.950;11.014;2023-03-21T18:49:20;98857.98;;;1.39;82.58
62864;BME280;48954;59.950;11.014;2023-03-21T18:51:46;98855.02;;;1.38;82.73
62864;BME280;48954;59.950;11.014;2023-03-21T18:54:12;98853.45;;;1.38;82.76
62864;BME280;48954;59.950;11.014;2023-03-21T18:56:39;98849.89;;;1.38;82.78
62864;BME280;48954;59.950;11.014;2023-03-21T18:59:05;98846.60;;;1.35;82.93
62864;BME280;48954;59.950;11.014;2023-03-21T19:01:31;98846.70;;;1.34;82.75
62864;BME280;48954;59.950;11.014;2023-03-21T19:03:58;98845.70;;;1.31;82.72
62864;BME280;48954;59.950;11.014;2023-03-21T19:06:25;98842.20;;;1.28;82.86
62864;BME280;48954;59.950;11.014;2023-03-21T19:08:52;98841.04;;;1.27;82.84
62864;BME280;48954;59.950;11.014;2023-03-21T19:11:18;98839.29;;;1.26;83.03
62864;BME280;48954;59.950;11.014;2023-03-21T19:13:49;98837.54;;;1.25;83.09
62864;BME280;48954;59.950;11.014;2023-03-21T19:16:18;98832.79;;;1.22;82.76
62864;BME280;48954;59.950;11.014;2023-03-21T19:18:58;98826.09;;;1.20;82.99
62864;BME280;48954;59.950;11.014;2023-03-21T19:21:28;98820.30;;;1.18;83.01
62864;BME280;48954;59.950;11.014;2023-03-21T19:23:55;98821.02;;;1.17;83.01
62864;BME280;48954;59.950;11.014;2023-03-21T19:26:21;98816.39;;;1.16;83.06
62864;BME280;48954;59.950;11.014;2023-03-21T19:28:47;98814.64;;;1.14;82.77
62864;BME280;48954;59.950;11.014;2023-03-21T19:31:14;98815.98;;;1.13;82.89
62864;BME280;48954;59.950;11.014;2023-03-21T19:33:40;98812.75;;;1.11;82.92
62864;BME280;48954;59.950;11.014;2023-03-21T19:36:10;98809.25;;;1.08;82.81
62864;BME280;48954;59.950;11.014;2023-03-21T19:38:39;98809.43;;;1.07;82.97
62864;BME280;48954;59.950;11.014;2023-03-21T19:41:06;98806.02;;;1.05;82.84
62864;BME280;48954;59.950;11.014;2023-03-21T19:43:32;98801.70;;;1.04;83.01
62864;BME280;48954;59.950;11.014;2023-03-21T19:46:00;98800.13;;;1.02;82.78
62864;BME280;48954;59.950;11.014;2023-03-21T19:48:26;98794.10;;;1.01;82.97
62864;BME280;48954;59.950;11.014;2023-03-21T19:50:53;98789.95;;;1.00;82.82
62864;BME280;48954;59.950;11.014;2023-03-21T19:53:19;98782.94;;;0.99;83.13
62864;BME280;48954;59.950;11.014;2023-03-21T19:55:51;98780.80;;;0.98;83.10
62864;BME280;48954;59.950;11.014;2023-03-21T19:58:18;98781.16;;;0.97;82.88
62864;BME280;48954;59.950;11.014;2023-03-21T20:00:44;98780.14;;;0.95;83.02
62864;BME280;48954;59.950;11.014;2023-03-21T20:03:11;98775.11;;;0.94;82.71
62864;BME280;48954;59.950;11.014;2023-03-21T20:05:37;98774.15;;;0.91;82.69
62864;BME280;48954;59.950;11.014;2023-03-21T20:08:03;98773.27;;;0.89;82.87
62864;BME280;48954;59.950;11.014;2023-03-21T20:10:31;98769.54;;;0.87;82.87
62864;BME280;48954;59.950;11.014;2023-03-21T20:12:58;98765.48;;;0.83;82.60
62864;BME280;48954;59.950;11.014;2023-03-21T20:15:25;98763.67;;;0.79;82.75
62864;BME280;48954;59.950;11.014;2023-03-21T20:17:51;98760.60;;;0.75;82.98
62864;BME280;48954;59.950;11.014;2023-03-21T20:20:30;98759.51;;;0.72;82.85
62864;BME280;48954;59.950;11.014;2023-03-21T20:22:59;98751.96;;;0.70;83.01
62864;BME280;48954;59.950;11.014;2023-03-21T20:25:25;98749.77;;;0.70;83.02
62864;BME280;48954;59.950;11.014;2023-03-21T20:27:51;98744.13;;;0.68;83.02
62864;BME280;48954;59.950;11.014;2023-03-21T20:30:19;98744.92;;;0.69;83.06
62864;BME280;48954;59.950;11.014;2023-03-21T20:32:46;98737.34;;;0.69;82.99
62864;BME280;48954;59.950;11.014;2023-03-21T20:35:14;98736.96;;;0.67;82.96
62864;BME280;48954;59.950;11.014;2023-03-21T20:37:41;98731.30;;;0.65;83.03
62864;BME280;48954;59.950;11.014;2023-03-21T20:40:07;98729.63;;;0.64;83.13
62864;BME280;48954;59.950;11.014;2023-03-21T20:42:37;98723.73;;;0.61;83.09
62864;BME280;48954;59.950;11.014;2023-03-21T20:45:05;98722.99;;;0.61;83.06
62864;BME280;48954;59.950;11.014;2023-03-21T20:47:33;98715.70;;;0.60;83.22
62864;BME280;48954;59.950;11.014;2023-03-21T20:50:34;98712.42;;;0.59;83.12
62864;BME280;48954;59.950;11.014;2023-03-21T20:55:40;98706.05;;;0.55;83.11
62864;BME280;48954;59.950;11.014;2023-03-21T20:58:31;98702.13;;;0.54;83.33
62864;BME280;48954;59.950;11.014;2023-03-21T21:01:17;98698.59;;;0.51;83.40
62864;BME280;48954;59.950;11.014;2023-03-21T21:04:05;98694.90;;;0.48;83.21
62864;BME280;48954;59.950;11.014;2023-03-21T21:06:49;98695.91;;;0.46;83.23
62864;BME280;48954;59.950;11.014;2023-03-21T21:09:19;98690.62;;;0.44;83.25
62864;BME280;48954;59.950;11.014;2023-03-21T21:11:54;98687.46;;;0.39;83.09
62864;BME280;48954;59.950;11.014;2023-03-21T21:14:22;98684.58;;;0.37;83.17
62864;BME280;48954;59.950;11.014;2023-03-21T21:16:48;98679.70;;;0.35;83.54
62864;BME280;48954;59.950;11.014;2023-03-21T21:19:18;98672.39;;;0.33;83.38
62864;BME280;48954;59.950;11.014;2023-03-21T21:22:01;98663.32;;;0.33;83.50
62864;BME280;48954;59.950;11.014;2023-03-21T21:24:50;98660.17;;;0.33;83.50
62864;BME280;48954;59.950;11.014;2023-03-21T21:27:58;98654.95;;;0.33;83.51
62864;BME280;48954;59.950;11.014;2023-03-21T21:30:38;98650.75;;;0.32;83.63
62864;BME280;48954;59.950;11.014;2023-03-21T21:33:08;98644.02;;;0.29;83.59
62864;BME280;48954;59.950;11.014;2023-03-21T21:38:49;98630.98;;;0.25;83.69
62864;BME280;48954;59.950;11.014;2023-03-21T21:41:25;98631.73;;;0.21;83.72
62864;BME280;48954;59.950;11.014;2023-03-21T21:43:51;98631.48;;;0.21;83.50
62864;BME280;48954;59.950;11.014;2023-03-21T21:46:18;98626.67;;;0.21;83.68
62864;BME280;48954;59.950;11.014;2023-03-21T21:48:44;98627.72;;;0.20;83.51
62864;BME280;48954;59.950;11.014;2023-03-21T21:51:10;98624.85;;;0.18;83.96
62864;BME280;48954;59.950;11.014;2023-03-21T21:53:36;98617.95;;;0.17;83.81
62864;BME280;48954;59.950;11.014;2023-03-21T21:56:03;98619.09;;;0.17;83.78
62864;BME280;48954;59.950;11.014;2023-03-21T21:58:29;98615.00;;;0.13;83.72
62864;BME280;48954;59.950;11.014;2023-03-21T22:00:59;98607.63;;;0.12;83.87
62864;BME280;48954;59.950;11.014;2023-03-21T22:03:28;98602.44;;;0.11;83.86
62864;BME280;48954;59.950;11.014;2023-03-21T22:06:00;98601.84;;;0.11;84.06
62864;BME280;48954;59.950;11.014;2023-03-21T22:08:29;98597.60;;;0.10;84.09
62864;BME280;48954;59.950;11.014;2023-03-21T22:10:58;98595.75;;;0.08;83.98
62864;BME280;48954;59.950;11.014;2023-03-21T22:13:25;98591.16;;;0.06;84.25
62864;BME280;48954;59.950;11.014;2023-03-21T22:15:51;98584.77;;;0.05;84.13
62864;BME280;48954;59.950;11.014;2023-03-21T22:18:17;98585.73;;;0.05;83.93
62864;BME280;48954;59.950;11.014;2023-03-21T22:20:45;98579.15;;;0.05;84.35
62864;BME280;48954;59.950;11.014;2023-03-21T22:23:18;98576.86;;;0.05;84.18
62864;BME280;48954;59.950;11.014;2023-03-21T22:25:48;98573.00;;;0.06;84.22
62864;BME280;48954;59.950;11.014;2023-03-21T22:28:15;98572.65;;;0.07;84.23
62864;BME280;48954;59.950;11.014;2023-03-21T22:30:41;98566.77;;;0.04;84.29
62864;BME280;48954;59.950;11.014;2023-03-21T22:33:08;98567.15;;;0.05;84.39
62864;BME280;48954;59.950;11.014;2023-03-21T22:35:36;98564.10;;;0.03;84.31
62864;BME280;48954;59.950;11.014;2023-03-21T22:38:02;98561.36;;;0.03;84.52
62864;BME280;48954;59.950;11.014;2023-03-21T22:40:28;98560.06;;;0.01;84.04
62864;BME280;48954;59.950;11.014;2023-03-21T22:42:55;98555.54;;;0.02;84.47
62864;BME280;48954;59.950;11.014;2023-03-21T22:45:22;98545.90;;;0.02;84.35
62864;BME280;48954;59.950;11.014;2023-03-21T22:47:49;98537.92;;;0.04;84.53
62864;BME280;48954;59.950;11.014;2023-03-21T22:50:15;98529.20;;;0.04;84.43
62864;BME280;48954;59.950;11.014;2023-03-21T22:52:41;98524.88;;;0.04;84.64
62864;BME280;48954;59.950;11.014;2023-03-21T22:55:07;98517.38;;;0.04;84.52
62864;BME280;48954;59.950;11.014;2023-03-21T22:57:33;98513.02;;;0.03;84.53
62864;BME280;48954;59.950;11.014;2023-03-21T23:00:00;98512.09;;;0.03;84.27
62864;BME280;48954;59.950;11.014;2023-03-21T23:02:26;98512.20;;;0.02;84.61
62864;BME280;48954;59.950;11.014;2023-03-21T23:04:52;98511.36;;;-0.01;84.39
62864;BME280;48954;59.950;11.014;2023-03-21T23:07:18;98501.50;;;-0.02;84.62
62864;BME280;48954;59.950;11.014;2023-03-21T23:09:44;98501.06;;;-0.01;84.88
62864;BME280;48954;59.950;11.014;2023-03-21T23:12:11;98492.73;;;-0.01;84.86
62864;BME280;48954;59.950;11.014;2023-03-21T23:14:37;98486.36;;;0.00;84.62
62864;BME280;48954;59.950;11.014;2023-03-21T23:17:03;98480.02;;;0.00;84.68
62864;BME280;48954;59.950;11.014;2023-03-21T23:19:29;98478.20;;;-0.01;84.81
62864;BME280;48954;59.950;11.014;2023-03-21T23:21:55;98473.71;;;-0.02;84.80
62864;BME280;48954;59.950;11.014;2023-03-21T23:24:22;98470.43;;;-0.04;84.79
62864;BME280;48954;59.950;11.014;2023-03-21T23:26:50;98469.64;;;-0.05;84.66
62864;BME280;48954;59.950;11.014;2023-03-21T23:29:16;98465.80;;;-0.06;85.17
62864;BME280;48954;59.950;11.014;2023-03-21T23:31:42;98463.08;;;-0.07;85.03
62864;BME280;48954;59.950;11.014;2023-03-21T23:34:11;98459.02;;;-0.09;84.89
62864;BME280;48954;59.950;11.014;2023-03-21T23:36:37;98457.02;;;-0.10;85.31
62864;BME280;48954;59.950;11.014;2023-03-21T23:39:04;98449.52;;;-0.12;85.09
62864;BME280;48954;59.950;11.014;2023-03-21T23:41:30;98445.41;;;-0.13;85.13
62864;BME280;48954;59.950;11.014;2023-03-21T23:43:56;98444.16;;;-0.13;85.19
62864;BME280;48954;59.950;11.014;2023-03-21T23:46:22;98439.88;;;-0.14;85.19
62864;BME280;48954;59.950;11.014;2023-03-21T23:48:48;98435.67;;;-0.15;85.00
62864;BME280;48954;59.950;11.014;2023-03-21T23:51:16;98436.47;;;-0.14;85.50
62864;BME280;48954;59.950;11.014;2023-03-21T23:53:43;98430.14;;;-0.14;85.52
62864;BME280;48954;59.950;11.014;2023-03-21T23:56:15;98427.27;;;-0.13;85.44
62864;BME280;48954;59.950;11.014;2023-03-21T23:58:42;98422.86;;;-0.11;85.56
